createdAt,value
2023-05-10T00:00:28.890Z,8.38
2023-05-10T00:02:55.362Z,9.10
2023-05-10T00:05:21.813Z,8.75
2023-05-10T00:07:48.262Z,9.20
2023-05-10T00:10:15.047Z,9.10
2023-05-10T00:12:41.899Z,9.50
2023-05-10T00:15:09.262Z,9.23
2023-05-10T00:17:35.778Z,9.38
2023-05-10T00:20:02.246Z,9.27
2023-05-10T00:22:28.658Z,9.45
2023-05-10T00:24:55.063Z,9.05
2023-05-10T00:27:21.475Z,9.73
2023-05-10T00:29:48.046Z,9.52
2023-05-10T00:32:14.953Z,9.98
2023-05-10T00:34:41.667Z,9.20
2023-05-10T00:37:08.145Z,9.75
2023-05-10T00:39:34.600Z,9.25
2023-05-10T00:42:01.262Z,9.73
2023-05-10T00:44:27.678Z,9.73
2023-05-10T00:46:54.178Z,9.30
2023-05-10T00:49:21.565Z,9.15
2023-05-10T00:51:48.129Z,8.98
2023-05-10T00:54:16.158Z,9.32
2023-05-10T00:56:42.791Z,10.63
2023-05-10T00:59:09.821Z,9.50
2023-05-10T01:01:37.177Z,9.93
2023-05-10T01:04:04.390Z,10.00
2023-05-10T01:06:30.803Z,10.93
2023-05-10T01:08:57.390Z,10.50
2023-05-10T01:11:23.791Z,10.55
2023-05-10T01:13:57.805Z,10.30
2023-05-10T01:16:25.740Z,9.88
2023-05-10T01:18:52.999Z,10.43
2023-05-10T01:21:48.445Z,10.60
2023-05-10T01:24:39.311Z,9.98
2023-05-10T01:27:35.602Z,10.20
2023-05-10T01:30:16.138Z,10.40
2023-05-10T01:32:51.693Z,10.27
2023-05-10T01:35:23.550Z,10.27
2023-05-10T01:37:58.710Z,10.93
2023-05-10T01:40:48.677Z,10.73
2023-05-10T01:43:24.249Z,10.57
2023-05-10T01:46:22.957Z,10.35
2023-05-10T01:48:53.285Z,11.45
2023-05-10T01:51:28.562Z,10.80
2023-05-10T01:54:01.724Z,11.32
2023-05-10T01:56:31.743Z,12.00
2023-05-10T01:58:59.541Z,11.90
2023-05-10T02:01:27.562Z,11.88
2023-05-10T02:03:54.936Z,11.65
2023-05-10T02:06:23.569Z,11.65
2023-05-10T02:08:52.075Z,11.80
2023-05-10T02:11:21.996Z,12.57
2023-05-10T02:13:50.920Z,12.32
2023-05-10T02:16:19.264Z,12.88
2023-05-10T02:18:47.892Z,12.88
2023-05-10T02:21:16.699Z,13.32
2023-05-10T02:23:44.510Z,12.93
2023-05-10T02:26:12.959Z,13.38
2023-05-10T02:28:41.393Z,13.23
2023-05-10T02:31:08.443Z,13.63
2023-05-10T02:33:35.761Z,13.25
2023-05-10T02:36:04.195Z,13.70
2023-05-10T02:38:32.672Z,12.48
2023-05-10T02:41:00.537Z,13.30
2023-05-10T02:43:28.449Z,12.90
2023-05-10T02:45:55.000Z,14.57
2023-05-10T02:48:21.497Z,13.43
2023-05-10T02:50:52.323Z,13.77
2023-05-10T02:53:32.838Z,13.75
2023-05-10T02:56:02.349Z,13.52
2023-05-10T02:58:28.795Z,14.63
2023-05-10T03:00:55.347Z,14.27
2023-05-10T03:03:22.087Z,13.80
2023-05-10T03:05:48.506Z,13.80
2023-05-10T03:08:14.938Z,13.80
2023-05-10T03:11:22.868Z,15.02
2023-05-10T03:14:28.436Z,15.10
2023-05-10T03:17:05.243Z,14.15
2023-05-10T03:19:44.293Z,14.98
2023-05-10T03:22:12.431Z,15.23
2023-05-10T03:24:42.187Z,15.18
2023-05-10T03:27:09.385Z,15.15
2023-05-10T03:29:36.372Z,15.35
2023-05-10T03:32:03.191Z,15.52
2023-05-10T03:34:31.421Z,15.90
2023-05-10T03:36:58.009Z,15.88
2023-05-10T03:39:25.839Z,16.02
2023-05-10T03:41:52.253Z,15.55
2023-05-10T03:44:18.714Z,15.57
2023-05-10T03:46:45.264Z,15.80
2023-05-10T03:49:11.687Z,15.80
2023-05-10T03:51:38.261Z,16.02
2023-05-10T03:54:04.776Z,16.40
2023-05-10T03:56:31.197Z,14.95
2023-05-10T03:58:57.612Z,15.50
2023-05-10T04:01:24.101Z,15.35
2023-05-10T04:03:50.647Z,15.68
2023-05-10T04:06:17.678Z,14.57
2023-05-10T04:08:44.179Z,14.60
2023-05-10T04:11:12.089Z,15.32
2023-05-10T04:13:39.165Z,14.48
2023-05-10T04:16:06.074Z,14.93
2023-05-10T04:18:32.870Z,14.85
2023-05-10T04:20:59.281Z,14.88
2023-05-10T04:23:25.703Z,14.30
2023-05-10T04:25:52.162Z,14.63
2023-05-10T04:28:18.620Z,14.23
2023-05-10T04:30:45.084Z,14.32
2023-05-10T04:33:11.500Z,14.63
2023-05-10T04:35:37.964Z,14.43
2023-05-10T04:38:04.399Z,13.82
2023-05-10T04:40:30.933Z,14.30
2023-05-10T04:42:57.481Z,15.07
2023-05-10T04:45:24.025Z,14.48
2023-05-10T04:47:50.588Z,14.38
2023-05-10T04:50:20.028Z,13.90
2023-05-10T04:52:46.695Z,13.57
2023-05-10T04:55:13.116Z,14.43
2023-05-10T04:57:39.673Z,13.95
2023-05-10T05:00:06.763Z,14.00
2023-05-10T05:02:33.283Z,13.25
2023-05-10T05:04:59.852Z,14.05
2023-05-10T05:07:26.333Z,14.52
2023-05-10T05:09:52.740Z,14.18
2023-05-10T05:12:19.133Z,14.20
2023-05-10T05:14:45.636Z,14.40
2023-05-10T05:17:12.084Z,15.02
2023-05-10T05:19:38.542Z,15.48
2023-05-10T05:22:07.272Z,14.85
2023-05-10T05:24:39.029Z,14.15
2023-05-10T05:27:05.750Z,14.43
2023-05-10T05:29:32.211Z,13.85
2023-05-10T05:31:58.847Z,13.68
2023-05-10T05:34:25.400Z,13.70
2023-05-10T05:36:51.933Z,14.38
2023-05-10T05:39:18.385Z,13.77
2023-05-10T05:41:44.949Z,14.40
2023-05-10T05:44:11.360Z,14.20
2023-05-10T05:46:37.864Z,14.25
2023-05-10T05:49:04.289Z,13.32
2023-05-10T05:51:30.720Z,14.68
2023-05-10T05:53:57.130Z,14.32
2023-05-10T05:56:26.556Z,14.80
2023-05-10T05:58:53.074Z,14.75
2023-05-10T06:01:19.642Z,15.05
2023-05-10T06:03:46.292Z,16.00
2023-05-10T06:06:13.493Z,16.23
2023-05-10T06:08:39.956Z,16.35
2023-05-10T06:11:06.380Z,16.23
2023-05-10T06:13:34.294Z,16.92
2023-05-10T06:16:01.373Z,17.00
2023-05-10T06:18:27.851Z,16.05
2023-05-10T06:20:54.319Z,17.75
2023-05-10T06:23:20.788Z,17.27
2023-05-10T06:25:47.660Z,16.48
2023-05-10T06:28:14.159Z,17.20
2023-05-10T06:30:40.656Z,15.55
2023-05-10T06:33:07.244Z,16.75
2023-05-10T06:35:34.515Z,17.45
2023-05-10T06:38:01.116Z,17.40
2023-05-10T06:40:27.756Z,16.73
2023-05-10T06:42:54.172Z,17.27
2023-05-10T06:45:20.958Z,17.60
2023-05-10T06:47:47.937Z,16.50
2023-05-10T06:50:14.506Z,17.33
2023-05-10T06:52:41.062Z,16.45
2023-05-10T06:55:08.019Z,17.17
2023-05-10T06:57:34.454Z,17.38
2023-05-10T07:00:01.056Z,17.23
2023-05-10T07:02:27.734Z,16.58
2023-05-10T07:04:54.429Z,16.05
2023-05-10T07:07:20.947Z,17.02
2023-05-10T07:09:53.574Z,16.55
2023-05-10T07:12:20.150Z,17.35
2023-05-10T07:14:46.825Z,15.85
2023-05-10T07:17:13.476Z,15.93
2023-05-10T07:19:39.994Z,15.60
2023-05-10T07:22:06.502Z,14.77
2023-05-10T07:24:33.363Z,15.73
2023-05-10T07:26:59.833Z,15.43
2023-05-10T07:29:26.864Z,14.48
2023-05-10T07:31:55.290Z,14.20
2023-05-10T07:34:23.025Z,14.70
2023-05-10T07:36:49.552Z,13.65
2023-05-10T07:39:24.424Z,12.73
2023-05-10T07:41:53.392Z,13.68
2023-05-10T07:44:23.798Z,12.68
2023-05-10T07:46:50.326Z,13.60
2023-05-10T07:49:17.008Z,12.43
2023-05-10T07:51:43.730Z,12.10
2023-05-10T07:54:10.264Z,12.57
2023-05-10T07:56:37.144Z,10.90
2023-05-10T07:59:09.296Z,11.18
2023-05-10T08:01:36.820Z,11.38
2023-05-10T08:04:03.523Z,10.77
2023-05-10T08:06:31.024Z,10.68
2023-05-10T08:08:57.820Z,9.82
2023-05-10T08:11:24.652Z,10.63
2023-05-10T08:13:51.709Z,9.60
2023-05-10T08:16:18.468Z,9.43
2023-05-10T08:18:46.648Z,9.25
2023-05-10T08:21:14.671Z,8.70
2023-05-10T08:23:41.645Z,8.52
2023-05-10T08:26:08.101Z,8.82
2023-05-10T08:28:35.699Z,7.80
2023-05-10T08:31:02.173Z,8.57
2023-05-10T08:33:28.654Z,7.65
2023-05-10T08:35:55.147Z,8.20
2023-05-10T08:38:21.677Z,7.40
2023-05-10T08:40:50.376Z,7.00
2023-05-10T08:43:16.983Z,7.47
2023-05-10T08:45:48.776Z,7.25
2023-05-10T08:48:16.583Z,6.63
2023-05-10T08:50:44.017Z,6.70
2023-05-10T08:53:12.334Z,6.15
2023-05-10T08:55:39.762Z,5.97
2023-05-10T08:58:07.126Z,5.43
2023-05-10T09:00:34.184Z,6.13
2023-05-10T09:03:01.622Z,5.78
2023-05-10T09:05:28.453Z,5.95
2023-05-10T09:07:54.940Z,5.40
2023-05-10T09:10:22.597Z,5.15
2023-05-10T09:12:49.553Z,5.65
2023-05-10T09:15:20.294Z,5.20
2023-05-10T09:17:48.192Z,5.47
2023-05-10T09:20:14.818Z,5.13
2023-05-10T09:22:41.900Z,5.20
2023-05-10T09:25:10.067Z,5.35
2023-05-10T09:27:37.244Z,5.25
2023-05-10T09:30:06.143Z,4.95
2023-05-10T09:32:46.808Z,5.00
2023-05-10T09:35:19.179Z,5.15
2023-05-10T09:37:48.900Z,4.85
2023-05-10T09:40:20.327Z,4.97
2023-05-10T09:42:54.327Z,5.18
2023-05-10T09:45:21.059Z,4.90
2023-05-10T09:47:50.911Z,4.45
2023-05-10T09:50:18.003Z,5.00
2023-05-10T09:52:52.426Z,4.72
2023-05-10T09:55:21.191Z,4.65
2023-05-10T09:57:49.317Z,5.40
2023-05-10T10:00:21.655Z,5.00
2023-05-10T10:03:01.128Z,5.63
2023-05-10T10:05:34.849Z,5.15
2023-05-10T10:08:03.242Z,5.50
2023-05-10T10:10:30.105Z,5.30
2023-05-10T10:12:56.672Z,5.72
2023-05-10T10:15:23.987Z,5.32
2023-05-10T10:17:51.824Z,5.40
2023-05-10T10:20:20.627Z,6.22
2023-05-10T10:22:48.312Z,5.80
2023-05-10T10:25:17.127Z,5.45
2023-05-10T10:27:56.260Z,5.20
2023-05-10T10:30:31.745Z,5.43
2023-05-10T10:33:13.273Z,5.13
2023-05-10T10:35:47.793Z,5.10
2023-05-10T10:38:14.794Z,4.93
2023-05-10T10:40:41.382Z,5.28
2023-05-10T10:43:27.797Z,4.95
2023-05-10T10:46:18.038Z,4.95
2023-05-10T10:49:09.359Z,4.90
2023-05-10T10:51:39.701Z,5.35
2023-05-10T10:54:12.570Z,5.05
2023-05-10T10:56:39.196Z,5.30
2023-05-10T10:59:05.678Z,5.18
2023-05-10T11:01:36.417Z,4.65
2023-05-10T11:04:05.962Z,4.85
2023-05-10T11:06:37.138Z,5.50
2023-05-10T11:09:10.197Z,4.68
2023-05-10T11:11:37.561Z,4.80
2023-05-10T11:14:08.076Z,5.00
2023-05-10T11:16:45.166Z,4.88
2023-05-10T11:19:13.635Z,4.20
2023-05-10T11:22:14.013Z,4.53
2023-05-10T11:24:40.477Z,4.90
2023-05-10T11:27:07.070Z,4.68
2023-05-10T11:29:33.499Z,4.10
2023-05-10T11:32:00.700Z,4.43
2023-05-10T11:34:34.285Z,4.50
2023-05-10T11:37:01.288Z,4.63
2023-05-10T11:39:29.675Z,4.20
2023-05-10T11:41:56.409Z,4.10
2023-05-10T11:44:23.492Z,4.30
2023-05-10T11:46:50.317Z,4.40
2023-05-10T11:49:16.873Z,4.05
2023-05-10T11:51:44.599Z,3.70
2023-05-10T11:54:12.334Z,4.15
2023-05-10T11:56:40.832Z,4.13
2023-05-10T11:59:08.914Z,4.10
2023-05-10T12:01:36.142Z,3.60
2023-05-10T12:04:03.000Z,3.85
2023-05-10T12:06:32.831Z,3.28
2023-05-10T12:09:00.230Z,3.38
2023-05-10T12:11:28.670Z,3.50
2023-05-10T12:13:56.442Z,3.47
2023-05-10T12:16:29.129Z,3.72
2023-05-10T12:18:59.044Z,3.25
2023-05-10T12:21:26.218Z,3.38
2023-05-10T12:24:00.519Z,3.55
2023-05-10T12:26:30.147Z,3.45
2023-05-10T12:29:13.155Z,3.20
2023-05-10T12:31:52.703Z,3.30
2023-05-10T12:34:26.715Z,3.30
2023-05-10T12:36:56.591Z,3.30
2023-05-10T12:39:23.311Z,2.85
2023-05-10T12:41:49.762Z,3.20
2023-05-10T12:44:18.736Z,2.85
2023-05-10T12:46:45.102Z,3.00
2023-05-10T12:49:11.540Z,3.40
2023-05-10T12:51:37.947Z,3.00
2023-05-10T12:54:04.628Z,3.40
2023-05-10T12:56:31.080Z,3.65
2023-05-10T12:58:57.452Z,3.28
2023-05-10T13:01:23.950Z,3.42
2023-05-10T13:03:50.600Z,3.40
2023-05-10T13:06:16.996Z,3.25
2023-05-10T13:08:43.393Z,3.40
2023-05-10T13:11:09.796Z,3.08
2023-05-10T13:13:36.191Z,2.97
2023-05-10T13:16:02.622Z,2.90
2023-05-10T13:18:29.143Z,3.13
2023-05-10T13:20:56.696Z,2.90
2023-05-10T13:23:23.495Z,2.90
2023-05-10T13:25:49.901Z,2.70
2023-05-10T13:28:18.405Z,2.60
2023-05-10T13:30:44.875Z,2.90
2023-05-10T13:33:11.340Z,2.67
2023-05-10T13:35:37.776Z,2.80
2023-05-10T13:38:04.275Z,2.63
2023-05-10T13:40:30.655Z,2.95
2023-05-10T13:42:57.134Z,2.60
2023-05-10T13:45:23.655Z,2.75
2023-05-10T13:47:50.425Z,2.72
2023-05-10T13:50:20.279Z,2.83
2023-05-10T13:52:46.739Z,2.90
2023-05-10T13:55:14.175Z,2.88
2023-05-10T13:57:40.603Z,3.00
2023-05-10T14:00:07.678Z,3.10
2023-05-10T14:02:34.096Z,2.88
2023-05-10T14:05:01.157Z,3.00
2023-05-10T14:07:27.543Z,2.72
2023-05-10T14:09:53.923Z,2.42
2023-05-10T14:12:20.318Z,2.90
2023-05-10T14:14:46.772Z,3.17
2023-05-10T14:17:13.189Z,3.00
2023-05-10T14:19:39.774Z,2.95
2023-05-10T14:22:06.529Z,3.60
2023-05-10T14:24:33.362Z,2.97
2023-05-10T14:26:59.737Z,2.95
2023-05-10T14:29:26.153Z,3.10
2023-05-10T14:31:52.691Z,3.30
2023-05-10T14:34:19.177Z,3.20
2023-05-10T14:36:45.555Z,3.47
2023-05-10T14:39:13.720Z,3.20
2023-05-10T14:41:42.474Z,3.28
2023-05-10T14:44:08.852Z,3.40
2023-05-10T14:46:35.567Z,3.10
2023-05-10T14:49:02.069Z,3.50
2023-05-10T14:51:28.614Z,3.80
2023-05-10T14:53:55.228Z,3.30
2023-05-10T14:56:22.523Z,3.58
2023-05-10T14:58:50.648Z,3.83
2023-05-10T15:01:17.288Z,3.42
2023-05-10T15:03:44.019Z,3.40
2023-05-10T15:06:11.604Z,3.50
2023-05-10T15:08:37.989Z,3.40
2023-05-10T15:11:04.442Z,3.58
2023-05-10T15:13:30.828Z,3.65
2023-05-10T15:15:57.320Z,2.97
2023-05-10T15:18:26.889Z,3.63
2023-05-10T15:20:53.317Z,3.10
2023-05-10T15:23:19.720Z,3.33
2023-05-10T15:25:47.280Z,2.90
2023-05-10T15:28:13.713Z,2.92
2023-05-10T15:30:40.122Z,3.35
2023-05-10T15:33:06.613Z,3.05
2023-05-10T15:35:33.290Z,2.92
2023-05-10T15:37:59.700Z,3.50
2023-05-10T15:40:26.120Z,3.90
2023-05-10T15:42:52.674Z,3.17
2023-05-10T15:45:19.225Z,3.35
2023-05-10T15:47:46.524Z,3.92
2023-05-10T15:50:13.008Z,3.75
2023-05-10T15:52:39.523Z,4.80
2023-05-10T15:55:12.682Z,4.40
2023-05-10T15:57:40.826Z,5.20
2023-05-10T16:00:09.144Z,4.45
2023-05-10T16:02:36.067Z,4.60
2023-05-10T16:05:02.570Z,4.45
2023-05-10T16:07:29.156Z,4.20
2023-05-10T16:09:55.792Z,4.22
2023-05-10T16:12:22.451Z,4.72
2023-05-10T16:14:49.027Z,4.07
2023-05-10T16:17:15.725Z,4.22
2023-05-10T16:19:42.340Z,3.80
2023-05-10T16:22:08.835Z,4.07
2023-05-10T16:24:35.290Z,4.57
2023-05-10T16:27:01.714Z,4.28
2023-05-10T16:29:28.131Z,4.20
2023-05-10T16:31:54.891Z,3.90
2023-05-10T16:34:24.296Z,3.90
2023-05-10T16:36:51.467Z,3.80
2023-05-10T16:39:17.944Z,3.90
2023-05-10T16:41:44.675Z,4.32
2023-05-10T16:44:11.154Z,3.70
2023-05-10T16:46:37.800Z,3.78
2023-05-10T16:49:04.503Z,3.67
2023-05-10T16:51:31.460Z,3.40
2023-05-10T16:53:57.876Z,3.45
2023-05-10T16:56:24.595Z,2.95
2023-05-10T16:58:51.377Z,3.70
2023-05-10T17:01:18.349Z,3.30
2023-05-10T17:03:45.021Z,3.50
2023-05-10T17:06:12.016Z,3.42
2023-05-10T17:08:38.512Z,3.35
2023-05-10T17:11:05.016Z,3.38
2023-05-10T17:13:31.962Z,3.50
2023-05-10T17:15:58.558Z,2.80
2023-05-10T17:18:26.659Z,3.20
2023-05-10T17:20:53.233Z,3.20
2023-05-10T17:23:19.724Z,2.85
2023-05-10T17:25:46.239Z,3.55
2023-05-10T17:28:12.782Z,3.38
2023-05-10T17:30:39.219Z,3.08
2023-05-10T17:33:05.831Z,2.90
2023-05-10T17:35:32.345Z,3.00
2023-05-10T17:37:58.828Z,3.05
2023-05-10T17:40:25.519Z,2.58
2023-05-10T17:42:52.157Z,3.00
2023-05-10T17:45:19.028Z,3.00
2023-05-10T17:47:45.887Z,3.13
2023-05-10T17:50:12.396Z,3.03
2023-05-10T17:52:38.875Z,3.28
2023-05-10T17:55:05.794Z,3.05
2023-05-10T17:57:32.259Z,2.90
2023-05-10T17:59:58.700Z,3.40
2023-05-10T18:02:25.121Z,3.30
2023-05-10T18:04:51.702Z,3.20
2023-05-10T18:07:18.227Z,3.20
2023-05-10T18:09:44.643Z,3.20
2023-05-10T18:12:11.104Z,3.10
2023-05-10T18:14:41.193Z,3.40
2023-05-10T18:17:09.404Z,3.03
2023-05-10T18:19:35.986Z,3.00
2023-05-10T18:22:02.762Z,3.33
2023-05-10T18:24:38.213Z,3.50
2023-05-10T18:27:06.696Z,3.35
2023-05-10T18:29:33.240Z,3.30
2023-05-10T18:31:59.697Z,3.65
2023-05-10T18:34:26.155Z,3.28
2023-05-10T18:36:52.984Z,3.55
2023-05-10T18:39:19.556Z,3.63
2023-05-10T18:41:46.239Z,3.30
2023-05-10T18:44:12.733Z,3.45
2023-05-10T18:46:39.508Z,3.40
2023-05-10T18:49:08.320Z,3.75
2023-05-10T18:51:34.804Z,3.60
2023-05-10T18:54:01.396Z,3.40
2023-05-10T18:56:27.929Z,3.30
2023-05-10T18:58:54.424Z,3.20
2023-05-10T19:01:21.321Z,3.50
2023-05-10T19:03:47.887Z,3.35
2023-05-10T19:06:14.361Z,3.42
2023-05-10T19:08:40.947Z,3.65
2023-05-10T19:11:07.448Z,3.45
2023-05-10T19:13:34.285Z,3.75
2023-05-10T19:16:15.975Z,3.38
2023-05-10T19:18:44.057Z,3.63
2023-05-10T19:21:11.434Z,3.45
2023-05-10T19:23:40.340Z,3.78
2023-05-10T19:26:07.294Z,4.20
2023-05-10T19:28:34.251Z,4.13
2023-05-10T19:31:02.154Z,3.75
2023-05-10T19:33:29.143Z,3.80
2023-05-10T19:35:55.819Z,3.58
2023-05-10T19:38:23.567Z,3.55
2023-05-10T19:40:51.053Z,3.42
2023-05-10T19:43:17.777Z,3.80
2023-05-10T19:45:44.382Z,3.60
2023-05-10T19:48:12.457Z,3.83
2023-05-10T19:50:38.951Z,3.40
2023-05-10T19:53:05.353Z,3.53
2023-05-10T19:55:32.532Z,3.42
2023-05-10T19:58:02.495Z,3.72
2023-05-10T20:00:29.282Z,4.07
2023-05-10T20:02:55.998Z,3.40
2023-05-10T20:05:22.784Z,3.80
2023-05-10T20:07:49.366Z,3.50
2023-05-10T20:10:17.115Z,3.63
2023-05-10T20:12:52.485Z,3.67
2023-05-10T20:15:21.492Z,3.70
2023-05-10T20:17:48.542Z,3.85
2023-05-10T20:20:18.521Z,3.33
2023-05-10T20:22:45.630Z,3.67
2023-05-10T20:25:13.082Z,3.60
2023-05-10T20:27:39.555Z,3.75
2023-05-10T20:30:07.055Z,3.63
2023-05-10T20:32:34.632Z,3.88
2023-05-10T20:35:01.478Z,3.72
2023-05-10T20:37:28.280Z,3.80
2023-05-10T20:39:55.250Z,3.90
2023-05-10T20:42:21.962Z,3.78
2023-05-10T20:44:48.565Z,4.10
2023-05-10T20:47:15.938Z,3.58
2023-05-10T20:49:42.717Z,4.15
2023-05-10T20:52:09.533Z,3.95
2023-05-10T20:54:35.931Z,3.90
2023-05-10T20:57:02.395Z,3.80
2023-05-10T20:59:29.355Z,4.00
2023-05-10T21:01:56.962Z,3.60
2023-05-10T21:04:24.574Z,3.92
2023-05-10T21:06:51.287Z,4.00
2023-05-10T21:09:17.889Z,3.42
2023-05-10T21:11:44.493Z,3.40
2023-05-10T21:14:11.001Z,4.03
2023-05-10T21:16:37.457Z,3.80
2023-05-10T21:19:04.047Z,3.50
2023-05-10T21:21:31.079Z,3.50
2023-05-10T21:23:57.605Z,3.97
2023-05-10T21:26:24.074Z,3.78
2023-05-10T21:28:50.601Z,3.85
2023-05-10T21:31:17.124Z,4.40
2023-05-10T21:33:43.653Z,3.65
2023-05-10T21:36:10.177Z,3.75
2023-05-10T21:38:36.695Z,3.97
2023-05-10T21:41:07.065Z,3.80
2023-05-10T21:43:33.782Z,3.67
2023-05-10T21:46:00.260Z,3.70
2023-05-10T21:48:26.732Z,4.05
2023-05-10T21:50:53.171Z,3.92
2023-05-10T21:53:19.673Z,3.58
2023-05-10T21:55:47.320Z,4.00
2023-05-10T21:58:13.715Z,4.00
2023-05-10T22:00:40.183Z,3.92
2023-05-10T22:03:06.727Z,3.80
2023-05-10T22:05:33.363Z,3.75
2023-05-10T22:07:59.835Z,3.72
2023-05-10T22:10:26.270Z,4.03
2023-05-10T22:12:52.813Z,3.60
2023-05-10T22:15:19.292Z,3.53
2023-05-10T22:17:45.758Z,3.60
2023-05-10T22:20:12.548Z,3.83
2023-05-10T22:22:39.068Z,3.97
2023-05-10T22:25:07.404Z,4.13
2023-05-10T22:27:33.995Z,3.85
2023-05-10T22:30:00.492Z,3.80
2023-05-10T22:32:27.180Z,3.60
2023-05-10T22:34:53.699Z,3.80
2023-05-10T22:37:20.196Z,3.92
2023-05-10T22:39:46.888Z,3.90
2023-05-10T22:42:13.386Z,3.70
2023-05-10T22:44:39.800Z,3.83
2023-05-10T22:47:09.107Z,3.80
2023-05-10T22:49:35.648Z,3.72
2023-05-10T22:52:02.365Z,3.95
2023-05-10T22:54:28.850Z,3.47
2023-05-10T22:56:56.482Z,3.63
2023-05-10T22:59:23.112Z,3.75
2023-05-10T23:01:49.628Z,3.78
2023-05-10T23:04:16.212Z,3.38
2023-05-10T23:06:42.644Z,3.40
2023-05-10T23:09:09.823Z,4.15
2023-05-10T23:11:36.493Z,3.88
2023-05-10T23:14:03.147Z,3.88
2023-05-10T23:16:30.585Z,3.50
2023-05-10T23:18:57.373Z,3.70
2023-05-10T23:21:25.253Z,3.75
2023-05-10T23:23:52.453Z,4.00
2023-05-10T23:26:18.971Z,3.92
2023-05-10T23:28:45.396Z,3.90
2023-05-10T23:31:11.811Z,4.00
2023-05-10T23:33:38.314Z,4.13
2023-05-10T23:36:05.114Z,3.78
2023-05-10T23:38:31.551Z,3.60
2023-05-10T23:40:58.009Z,4.10
2023-05-10T23:43:25.405Z,3.55
2023-05-10T23:45:58.585Z,3.88
2023-05-10T23:48:25.272Z,4.18
2023-05-10T23:50:51.783Z,4.38
2023-05-10T23:53:18.379Z,4.18
2023-05-10T23:55:45.442Z,4.07
2023-05-10T23:58:12.544Z,4.20
